createdAt,value
2019-04-07T00:00:32.553Z,4.80
2019-04-07T00:01:32.269Z,5.20
2019-04-07T00:02:32.437Z,4.90
2019-04-07T00:03:32.355Z,4.90
2019-04-07T00:04:32.972Z,4.80
2019-04-07T00:05:32.310Z,4.80
2019-04-07T00:06:32.302Z,5.10
2019-04-07T00:07:32.285Z,4.50
2019-04-07T00:08:32.931Z,4.70
2019-04-07T00:09:32.305Z,5.10
2019-04-07T00:10:32.292Z,4.60
2019-04-07T00:11:32.452Z,4.60
2019-04-07T00:12:32.321Z,4.90
2019-04-07T00:13:32.728Z,5.20
2019-04-07T00:14:32.913Z,4.80
2019-04-07T00:15:32.332Z,5.10
2019-04-07T00:16:32.757Z,4.70
2019-04-07T00:17:32.351Z,5.10
2019-04-07T00:18:32.319Z,4.70
2019-04-07T00:19:32.318Z,5.20
2019-04-07T00:20:32.320Z,5.00
2019-04-07T00:21:33.128Z,5.40
2019-04-07T00:22:32.391Z,5.10
2019-04-07T00:23:32.337Z,5.10
2019-04-07T00:24:32.329Z,5.10
2019-04-07T00:25:32.324Z,4.70
2019-04-07T00:26:32.335Z,4.70
2019-04-07T00:27:32.326Z,4.60
2019-04-07T00:28:32.515Z,4.90
2019-04-07T00:29:32.344Z,5.00
2019-04-07T00:30:32.303Z,4.60
2019-04-07T00:31:32.310Z,4.50
2019-04-07T00:32:32.772Z,5.20
2019-04-07T00:33:32.352Z,5.20
2019-04-07T00:34:32.306Z,4.30
2019-04-07T00:35:33.282Z,5.10
2019-04-07T00:36:32.876Z,5.10
2019-04-07T00:37:32.749Z,5.30
2019-04-07T00:38:32.545Z,5.10
2019-04-07T00:39:32.351Z,5.50
2019-04-07T00:40:32.335Z,5.10
2019-04-07T00:41:32.341Z,4.90
2019-04-07T00:42:32.617Z,5.30
2019-04-07T00:43:32.331Z,5.10
2019-04-07T00:44:32.823Z,5.50
2019-04-07T00:45:32.344Z,4.90
2019-04-07T00:46:32.321Z,5.20
2019-04-07T00:47:32.354Z,4.80
2019-04-07T00:48:32.358Z,5.00
2019-04-07T00:49:32.333Z,5.70
2019-04-07T00:50:32.596Z,5.20
2019-04-07T00:51:32.425Z,5.70
2019-04-07T00:52:32.707Z,5.20
2019-04-07T00:53:32.374Z,5.70
2019-04-07T00:54:32.665Z,5.30
2019-04-07T00:55:32.324Z,5.40
2019-04-07T00:56:32.346Z,5.50
2019-04-07T00:57:32.842Z,5.00
2019-04-07T00:58:32.352Z,5.70
2019-04-07T00:59:33.407Z,5.90
2019-04-07T01:00:32.440Z,5.60
2019-04-07T01:01:32.340Z,5.70
2019-04-07T01:02:32.374Z,5.80
2019-04-07T01:03:32.692Z,5.20
2019-04-07T01:04:32.358Z,5.60
2019-04-07T01:05:36.166Z,5.60
2019-04-07T01:06:32.897Z,5.80
2019-04-07T01:07:32.332Z,5.20
2019-04-07T01:08:32.619Z,5.00
2019-04-07T01:09:32.633Z,5.20
2019-04-07T01:10:32.731Z,5.00
2019-04-07T01:11:32.397Z,5.20
2019-04-07T01:12:32.374Z,5.20
2019-04-07T01:13:32.457Z,5.20
2019-04-07T01:14:32.405Z,5.10
2019-04-07T01:15:33.016Z,4.80
2019-04-07T01:16:32.749Z,4.20
2019-04-07T01:17:32.371Z,4.50
2019-04-07T01:18:32.667Z,4.60
2019-04-07T01:19:32.341Z,4.70
2019-04-07T01:20:32.372Z,5.00
2019-04-07T01:21:33.013Z,4.20
2019-04-07T01:22:32.949Z,4.90
2019-04-07T01:23:32.517Z,4.90
2019-04-07T01:24:33.046Z,3.90
2019-04-07T01:25:32.350Z,4.20
2019-04-07T01:26:32.706Z,5.00
2019-04-07T01:27:32.372Z,4.60
2019-04-07T01:28:32.834Z,4.40
2019-04-07T01:29:33.188Z,4.80
2019-04-07T01:30:32.677Z,4.60
2019-04-07T01:31:32.937Z,4.30
2019-04-07T01:32:32.359Z,4.50
2019-04-07T01:33:32.388Z,4.80
2019-04-07T01:34:32.372Z,5.10
2019-04-07T01:35:32.919Z,4.50
2019-04-07T01:36:32.623Z,4.20
2019-04-07T01:37:32.369Z,4.10
2019-04-07T01:38:32.398Z,4.50
2019-04-07T01:39:32.389Z,4.30
2019-04-07T01:40:32.388Z,4.20
2019-04-07T01:41:32.866Z,4.00
2019-04-07T01:42:32.394Z,4.30
2019-04-07T01:43:32.689Z,4.10
2019-04-07T01:44:32.381Z,3.80
2019-04-07T01:45:32.408Z,4.80
2019-04-07T01:46:32.682Z,4.70
2019-04-07T01:47:32.411Z,4.50
2019-04-07T01:48:32.393Z,4.80
2019-04-07T01:49:32.364Z,4.90
2019-04-07T01:50:32.773Z,4.50
2019-04-07T01:51:32.398Z,4.50
2019-04-07T01:52:32.801Z,5.40
2019-04-07T01:53:32.385Z,4.50
2019-04-07T01:54:32.964Z,4.60
2019-04-07T01:55:32.370Z,4.30
2019-04-07T01:56:32.621Z,4.50
2019-04-07T01:57:32.422Z,4.60
2019-04-07T01:58:32.892Z,4.40
2019-04-07T01:59:32.408Z,4.50
2019-04-07T02:00:32.589Z,4.80
2019-04-07T02:01:32.691Z,4.30
2019-04-07T02:02:32.488Z,4.70
2019-04-07T02:03:32.926Z,4.50
2019-04-07T02:04:32.529Z,4.50
2019-04-07T02:05:32.510Z,4.10
2019-04-07T02:06:32.402Z,4.20
2019-04-07T02:07:32.636Z,4.80
2019-04-07T02:08:32.487Z,4.50
2019-04-07T02:09:32.505Z,5.10
2019-04-07T02:10:32.400Z,6.20
2019-04-07T02:11:32.531Z,5.20
2019-04-07T02:12:32.408Z,4.70
2019-04-07T02:13:32.857Z,5.10
2019-04-07T02:14:32.403Z,4.90
2019-04-07T02:15:32.801Z,5.00
2019-04-07T02:16:32.389Z,5.10
2019-04-07T02:17:32.620Z,5.40
2019-04-07T02:18:32.839Z,4.80
2019-04-07T02:19:32.768Z,5.10
2019-04-07T02:20:32.412Z,5.00
2019-04-07T02:21:32.759Z,4.70
2019-04-07T02:22:32.441Z,4.40
2019-04-07T02:23:32.711Z,5.00
2019-04-07T02:24:32.442Z,4.90
2019-04-07T02:25:32.569Z,5.10
2019-04-07T02:26:32.399Z,5.00
2019-04-07T02:27:32.718Z,5.30
2019-04-07T02:28:32.989Z,4.70
2019-04-07T02:29:32.474Z,4.40
2019-04-07T02:30:33.160Z,4.70
2019-04-07T02:31:32.400Z,5.50
2019-04-07T02:32:32.454Z,5.30
2019-04-07T02:33:33.116Z,4.60
2019-04-07T02:34:32.431Z,5.10
2019-04-07T02:35:32.440Z,5.20
2019-04-07T02:36:33.611Z,5.20
2019-04-07T02:37:33.278Z,5.10
2019-04-07T02:38:32.432Z,5.00
2019-04-07T02:39:32.689Z,5.10
2019-04-07T02:40:33.056Z,6.40
2019-04-07T02:41:32.580Z,5.50
2019-04-07T02:42:32.421Z,5.80
2019-04-07T02:43:32.741Z,5.70
2019-04-07T02:44:33.541Z,5.70
2019-04-07T02:45:32.488Z,5.00
2019-04-07T02:46:33.241Z,6.10
2019-04-07T02:47:32.434Z,6.00
2019-04-07T02:48:32.431Z,6.00
2019-04-07T02:49:32.562Z,5.70
2019-04-07T02:50:33.266Z,6.40
2019-04-07T02:51:32.456Z,5.70
2019-04-07T02:52:33.200Z,5.70
2019-04-07T02:53:33.002Z,5.40
2019-04-07T02:54:32.441Z,6.30
2019-04-07T02:55:33.456Z,6.30
2019-04-07T02:56:32.585Z,6.30
2019-04-07T02:57:32.455Z,6.80
2019-04-07T02:58:32.815Z,6.60
2019-04-07T02:59:33.330Z,6.70
2019-04-07T03:00:32.457Z,6.10
2019-04-07T03:01:33.026Z,5.80
2019-04-07T03:02:33.305Z,6.50
2019-04-07T03:03:33.099Z,7.90
2019-04-07T03:04:32.919Z,7.00
2019-04-07T03:05:33.296Z,7.60
2019-04-07T03:06:43.041Z,7.00
2019-04-07T03:07:32.724Z,8.00
2019-04-07T03:08:32.441Z,7.10
2019-04-07T03:09:33.372Z,6.50
2019-04-07T03:10:33.399Z,7.40
2019-04-07T03:11:32.485Z,7.90
2019-04-07T03:12:33.223Z,7.90
2019-04-07T03:13:32.443Z,6.80
2019-04-07T03:14:33.279Z,6.00
2019-04-07T03:15:32.577Z,7.10
2019-04-07T03:16:32.489Z,7.30
2019-04-07T03:17:32.482Z,7.30
2019-04-07T03:18:33.109Z,7.60
2019-04-07T03:19:33.285Z,7.40
2019-04-07T03:20:32.586Z,7.10
2019-04-07T03:21:33.060Z,6.90
2019-04-07T03:22:32.571Z,6.80
2019-04-07T03:23:32.491Z,6.60
2019-04-07T03:24:33.409Z,6.10
2019-04-07T03:25:32.522Z,7.00
2019-04-07T03:26:32.498Z,7.90
2019-04-07T03:27:32.470Z,7.20
2019-04-07T03:28:33.351Z,7.10
2019-04-07T03:29:33.329Z,7.20
2019-04-07T03:30:33.748Z,7.80
2019-04-07T03:31:32.977Z,7.50
2019-04-07T03:32:33.123Z,7.10
2019-04-07T03:33:33.461Z,6.30
2019-04-07T03:34:33.481Z,8.30
2019-04-07T03:35:34.336Z,7.70
2019-04-07T03:36:50.787Z,7.80
2019-04-07T03:37:39.793Z,6.80
2019-04-07T03:38:33.349Z,8.50
2019-04-07T03:39:33.342Z,7.90
2019-04-07T03:40:33.465Z,8.00
2019-04-07T03:41:33.231Z,8.40
2019-04-07T03:42:32.785Z,8.50
2019-04-07T03:43:32.829Z,7.30
2019-04-07T03:44:32.485Z,7.80
2019-04-07T03:45:32.722Z,7.40
2019-04-07T03:46:32.628Z,7.30
2019-04-07T03:47:32.502Z,8.90
2019-04-07T03:48:32.541Z,7.70
2019-04-07T03:49:32.489Z,7.90
2019-04-07T03:50:33.219Z,8.50
2019-04-07T03:51:33.022Z,9.00
2019-04-07T03:52:32.461Z,9.20
2019-04-07T03:53:33.531Z,9.80
2019-04-07T03:54:33.497Z,9.70
2019-04-07T03:55:32.470Z,11.00
2019-04-07T03:56:32.500Z,11.10
2019-04-07T03:57:32.612Z,10.80
2019-04-07T03:58:32.491Z,11.50
2019-04-07T03:59:33.309Z,9.10
2019-04-07T04:00:32.487Z,9.50
2019-04-07T04:01:33.169Z,9.60
2019-04-07T04:02:33.227Z,9.70
2019-04-07T04:03:32.507Z,9.80
2019-04-07T04:04:32.477Z,9.90
2019-04-07T04:05:32.940Z,10.80
2019-04-07T04:06:32.509Z,10.40
2019-04-07T04:07:36.129Z,11.90
2019-04-07T04:08:32.732Z,11.20
2019-04-07T04:09:32.521Z,10.70
2019-04-07T04:10:32.471Z,10.60
2019-04-07T04:11:32.567Z,9.30
2019-04-07T04:12:32.500Z,10.30
2019-04-07T04:13:32.787Z,10.60
2019-04-07T04:14:33.275Z,11.00
2019-04-07T04:15:32.905Z,10.20
2019-04-07T04:16:32.495Z,11.00
2019-04-07T04:17:32.803Z,10.50
2019-04-07T04:18:32.498Z,11.20
2019-04-07T04:19:32.482Z,10.90
2019-04-07T04:20:32.498Z,10.00
2019-04-07T04:21:32.873Z,9.50
2019-04-07T04:22:32.606Z,10.10
2019-04-07T04:23:33.396Z,11.00
2019-04-07T04:24:32.513Z,10.90
2019-04-07T04:25:32.482Z,10.40
2019-04-07T04:26:32.522Z,10.30
2019-04-07T04:27:33.323Z,9.90
2019-04-07T04:28:32.493Z,12.70
2019-04-07T04:29:33.227Z,11.90
2019-04-07T04:30:32.501Z,13.80
2019-04-07T04:31:32.495Z,12.70
2019-04-07T04:32:32.899Z,12.50
2019-04-07T04:33:33.035Z,11.70
2019-04-07T04:34:32.925Z,12.60
2019-04-07T04:35:32.519Z,12.10
2019-04-07T04:36:33.397Z,12.80
2019-04-07T04:37:40.491Z,14.70
2019-04-07T04:38:32.513Z,12.30
2019-04-07T04:39:33.452Z,11.80
2019-04-07T04:40:32.517Z,13.00
2019-04-07T04:41:32.966Z,11.70
2019-04-07T04:42:33.723Z,10.70
2019-04-07T04:43:32.506Z,10.80
2019-04-07T04:44:32.499Z,9.90
2019-04-07T04:45:32.530Z,9.90
2019-04-07T04:46:32.758Z,11.50
2019-04-07T04:47:32.864Z,12.10
2019-04-07T04:48:32.536Z,11.30
2019-04-07T04:49:32.500Z,11.40
2019-04-07T04:50:32.531Z,13.20
2019-04-07T04:51:37.071Z,12.80
2019-04-07T04:52:32.546Z,10.90
2019-04-07T04:53:32.542Z,10.30
2019-04-07T04:54:33.359Z,10.30
2019-04-07T04:55:32.546Z,10.20
2019-04-07T04:56:32.801Z,11.80
2019-04-07T04:57:32.535Z,11.20
2019-04-07T04:58:32.526Z,13.20
2019-04-07T04:59:33.286Z,11.90
2019-04-07T05:00:32.528Z,11.60
2019-04-07T05:01:33.101Z,11.50
2019-04-07T05:02:32.650Z,11.90
2019-04-07T05:03:32.835Z,12.70
2019-04-07T05:04:32.804Z,11.70
2019-04-07T05:05:32.786Z,10.70
2019-04-07T05:06:33.178Z,11.60
2019-04-07T05:07:32.541Z,11.30
2019-04-07T05:08:32.559Z,12.60
2019-04-07T05:09:43.215Z,12.30
2019-04-07T05:10:32.619Z,11.20
2019-04-07T05:11:32.798Z,10.60
2019-04-07T05:12:32.561Z,13.30
2019-04-07T05:13:32.969Z,12.40
2019-04-07T05:14:32.537Z,11.10
2019-04-07T05:15:32.650Z,11.70
2019-04-07T05:16:33.210Z,11.00
2019-04-07T05:17:32.619Z,11.30
2019-04-07T05:18:32.588Z,11.60
2019-04-07T05:19:32.528Z,11.00
2019-04-07T05:20:33.125Z,10.70
2019-04-07T05:21:32.617Z,10.40
2019-04-07T05:22:33.247Z,9.40
2019-04-07T05:23:32.619Z,11.30
2019-04-07T05:24:32.566Z,10.90
2019-04-07T05:25:32.775Z,10.00
2019-04-07T05:26:32.534Z,10.00
2019-04-07T05:27:32.708Z,9.70
2019-04-07T05:28:34.988Z,10.70
2019-04-07T05:29:32.590Z,10.30
2019-04-07T05:30:32.569Z,11.10
2019-04-07T05:31:32.546Z,13.80
2019-04-07T05:32:32.582Z,12.60
2019-04-07T05:33:32.616Z,13.10
2019-04-07T05:34:33.337Z,12.60
2019-04-07T05:35:32.961Z,13.00
2019-04-07T05:36:32.557Z,19.00
2019-04-07T05:37:32.936Z,23.60
2019-04-07T05:38:32.555Z,24.70
2019-04-07T05:39:32.950Z,32.60
2019-04-07T05:40:32.560Z,33.60
2019-04-07T05:41:32.663Z,27.40
2019-04-07T05:42:32.865Z,26.10
2019-04-07T05:43:32.747Z,25.90
2019-04-07T05:44:33.085Z,19.10
2019-04-07T05:45:35.514Z,17.10
2019-04-07T05:46:32.556Z,16.60
2019-04-07T05:47:33.012Z,17.60
2019-04-07T05:48:32.678Z,17.00
2019-04-07T05:49:32.574Z,16.00
2019-04-07T05:50:32.671Z,17.70
2019-04-07T05:51:32.769Z,17.50
2019-04-07T05:52:33.515Z,15.90
2019-04-07T05:53:32.581Z,15.40
2019-04-07T05:54:32.863Z,14.90
2019-04-07T05:55:32.553Z,14.10
2019-04-07T05:56:32.549Z,16.50
2019-04-07T05:57:34.683Z,17.30
2019-04-07T05:58:32.564Z,19.30
2019-04-07T05:59:32.847Z,20.00
2019-04-07T06:00:32.590Z,19.40
2019-04-07T06:01:33.377Z,18.90
2019-04-07T06:02:34.068Z,17.00
2019-04-07T06:03:32.974Z,20.90
2019-04-07T06:04:32.581Z,19.40
2019-04-07T06:05:32.580Z,20.60
2019-04-07T06:06:33.037Z,20.80
2019-04-07T06:07:34.949Z,18.60
2019-04-07T06:08:37.666Z,17.70
2019-04-07T06:09:33.701Z,19.10
2019-04-07T06:10:32.585Z,19.20
2019-04-07T06:11:35.172Z,17.70
2019-04-07T06:12:32.864Z,18.20
2019-04-07T06:13:32.949Z,18.60
2019-04-07T06:14:32.577Z,17.60
2019-04-07T06:15:32.598Z,16.90
2019-04-07T06:16:33.365Z,16.60
2019-04-07T06:17:32.594Z,16.00
2019-04-07T06:18:34.229Z,16.80
2019-04-07T06:19:32.611Z,16.60
2019-04-07T06:20:32.574Z,15.80
2019-04-07T06:21:33.339Z,13.90
2019-04-07T06:22:32.612Z,15.30
2019-04-07T06:23:33.156Z,15.70
2019-04-07T06:24:34.103Z,14.30
2019-04-07T06:25:36.936Z,14.90
2019-04-07T06:26:33.053Z,13.80
2019-04-07T06:27:32.632Z,14.50
2019-04-07T06:28:32.700Z,14.70
2019-04-07T06:29:33.329Z,14.80
2019-04-07T06:30:33.051Z,15.80
2019-04-07T06:31:33.944Z,14.40
2019-04-07T06:32:35.219Z,16.20
2019-04-07T06:33:36.665Z,16.70
2019-04-07T06:34:32.667Z,16.20
2019-04-07T06:35:32.621Z,16.80
2019-04-07T06:36:32.855Z,15.80
2019-04-07T06:37:33.111Z,16.20
2019-04-07T06:38:34.933Z,14.80
2019-04-07T06:39:32.607Z,15.80
2019-04-07T06:40:32.597Z,15.70
2019-04-07T06:41:34.113Z,16.50
2019-04-07T06:42:34.123Z,15.50
2019-04-07T06:43:35.203Z,15.70
2019-04-07T06:44:32.611Z,15.00
2019-04-07T06:45:33.277Z,15.50
2019-04-07T06:46:32.596Z,15.00
2019-04-07T06:47:33.420Z,15.60
2019-04-07T06:48:33.028Z,15.70
2019-04-07T06:49:32.814Z,17.10
2019-04-07T06:50:43.603Z,16.30
2019-04-07T06:51:32.619Z,16.70
2019-04-07T06:52:36.263Z,14.70
2019-04-07T06:53:32.733Z,15.20
2019-04-07T06:54:32.998Z,15.60
2019-04-07T06:55:33.370Z,14.20
2019-04-07T06:56:34.252Z,14.60
2019-04-07T06:57:35.137Z,13.60
2019-04-07T06:58:33.090Z,14.80
2019-04-07T06:59:32.882Z,14.30
2019-04-07T07:00:32.705Z,14.50
2019-04-07T07:01:32.611Z,14.20
2019-04-07T07:02:34.969Z,15.30
2019-04-07T07:03:36.056Z,14.70
2019-04-07T07:04:32.656Z,15.00
2019-04-07T07:05:34.980Z,13.10
2019-04-07T07:06:32.895Z,12.00
2019-04-07T07:07:32.651Z,12.90
2019-04-07T07:08:42.570Z,12.50
2019-04-07T07:09:33.377Z,12.20
2019-04-07T07:10:37.616Z,11.60
2019-04-07T07:11:34.469Z,11.90
2019-04-07T07:12:37.870Z,11.70
2019-04-07T07:13:35.313Z,11.40
2019-04-07T07:14:40.516Z,9.80
2019-04-07T07:15:35.382Z,7.20
2019-04-07T07:16:32.618Z,6.60
2019-04-07T07:17:33.162Z,6.30
2019-04-07T07:18:32.628Z,6.40
2019-04-07T07:19:32.850Z,5.60
2019-04-07T07:20:32.804Z,5.80
2019-04-07T07:21:36.453Z,5.40
2019-04-07T07:22:32.650Z,5.00
2019-04-07T07:23:33.206Z,5.20
2019-04-07T07:24:32.675Z,5.00
2019-04-07T07:25:33.278Z,5.10
2019-04-07T07:26:35.098Z,5.30
2019-04-07T07:27:32.809Z,5.40
2019-04-07T07:28:32.652Z,4.90
2019-04-07T07:29:33.715Z,4.90
2019-04-07T07:30:32.747Z,4.90
2019-04-07T07:31:32.661Z,4.30
2019-04-07T07:32:35.023Z,4.60
2019-04-07T07:33:33.385Z,4.80
2019-04-07T07:34:32.631Z,5.00
2019-04-07T07:35:33.376Z,4.80
2019-04-07T07:36:32.880Z,5.20
2019-04-07T07:37:33.354Z,4.20
2019-04-07T07:38:33.416Z,4.60
2019-04-07T07:39:32.688Z,5.00
2019-04-07T07:40:34.635Z,4.20
2019-04-07T07:41:32.711Z,4.70
2019-04-07T07:42:32.983Z,4.40
2019-04-07T07:43:32.671Z,4.40
2019-04-07T07:44:35.871Z,4.00
2019-04-07T07:45:32.964Z,3.80
2019-04-07T07:46:33.313Z,4.10
2019-04-07T07:47:32.752Z,4.10
2019-04-07T07:48:32.852Z,4.50
2019-04-07T07:49:35.131Z,4.20
2019-04-07T07:50:34.712Z,4.90
2019-04-07T07:51:32.685Z,4.40
2019-04-07T07:52:33.040Z,4.10
2019-04-07T07:53:32.932Z,4.10
2019-04-07T07:54:33.375Z,4.50
2019-04-07T07:55:35.994Z,4.60
2019-04-07T07:56:32.780Z,3.80
2019-04-07T07:57:32.705Z,4.50
2019-04-07T07:58:33.617Z,3.90
2019-04-07T07:59:37.646Z,4.20
2019-04-07T08:00:34.518Z,4.50
2019-04-07T08:01:33.218Z,3.90
2019-04-07T08:02:33.258Z,4.20
2019-04-07T08:03:32.666Z,4.20
2019-04-07T08:04:33.400Z,4.20
2019-04-07T08:05:33.456Z,4.10
2019-04-07T08:06:32.881Z,3.90
2019-04-07T08:07:32.680Z,4.00
2019-04-07T08:08:33.130Z,3.70
2019-04-07T08:09:32.918Z,4.00
2019-04-07T08:10:33.057Z,3.80
2019-04-07T08:11:33.594Z,4.60
2019-04-07T08:12:34.711Z,4.20
2019-04-07T08:13:33.729Z,4.20
2019-04-07T08:14:32.694Z,3.90
2019-04-07T08:15:33.467Z,3.80
2019-04-07T08:16:33.509Z,3.90
2019-04-07T08:17:33.926Z,3.60
2019-04-07T08:18:36.134Z,3.60
2019-04-07T08:19:33.008Z,3.50
2019-04-07T08:20:32.694Z,3.50
2019-04-07T08:21:32.730Z,3.50
2019-04-07T08:22:39.300Z,3.70
2019-04-07T08:23:32.675Z,3.50
2019-04-07T08:24:32.790Z,3.80
2019-04-07T08:25:33.506Z,3.70
2019-04-07T08:26:33.302Z,3.40
2019-04-07T08:27:33.167Z,3.70
2019-04-07T08:28:35.135Z,3.30
2019-04-07T08:29:33.428Z,3.50
2019-04-07T08:30:32.874Z,2.90
2019-04-07T08:31:32.735Z,3.20
2019-04-07T08:32:33.387Z,3.20
2019-04-07T08:33:33.175Z,3.30
2019-04-07T08:34:33.064Z,3.00
2019-04-07T08:35:35.653Z,3.10
2019-04-07T08:36:32.730Z,2.90
2019-04-07T08:37:32.686Z,3.30
2019-04-07T08:38:33.287Z,3.00
2019-04-07T08:39:35.205Z,3.50
2019-04-07T08:40:32.711Z,3.20
2019-04-07T08:41:33.447Z,3.50
2019-04-07T08:42:32.873Z,3.00
2019-04-07T08:43:32.982Z,2.90
2019-04-07T08:44:32.724Z,4.00
2019-04-07T08:45:32.856Z,3.60
2019-04-07T08:46:35.594Z,3.60
2019-04-07T08:47:33.375Z,3.40
2019-04-07T08:48:33.296Z,3.70
2019-04-07T08:49:33.556Z,3.60
2019-04-07T08:50:33.185Z,3.60
2019-04-07T08:51:33.568Z,4.40
2019-04-07T08:52:33.189Z,3.90
2019-04-07T08:53:32.928Z,3.40
2019-04-07T08:54:32.964Z,3.40
2019-04-07T08:55:33.450Z,3.50
2019-04-07T08:56:32.962Z,3.10
2019-04-07T08:57:32.749Z,3.40
2019-04-07T08:58:36.937Z,3.50
2019-04-07T08:59:32.736Z,3.40
2019-04-07T09:00:33.491Z,4.20
2019-04-07T09:01:32.746Z,3.50
2019-04-07T09:02:32.703Z,3.50
2019-04-07T09:03:33.177Z,3.70
2019-04-07T09:04:32.720Z,4.20
2019-04-07T09:05:33.499Z,3.70
2019-04-07T09:06:33.164Z,3.40
2019-04-07T09:07:33.482Z,3.60
2019-04-07T09:08:34.668Z,3.40
2019-04-07T09:09:35.939Z,3.80
2019-04-07T09:10:33.590Z,3.50
2019-04-07T09:11:33.533Z,3.30
2019-04-07T09:12:32.799Z,3.50
2019-04-07T09:13:34.071Z,3.30
2019-04-07T09:14:32.737Z,4.00
2019-04-07T09:15:32.899Z,3.40
2019-04-07T09:16:33.571Z,3.50
2019-04-07T09:17:38.771Z,3.90
2019-04-07T09:18:33.424Z,4.00
2019-04-07T09:19:35.032Z,3.80
2019-04-07T09:20:32.829Z,4.30
2019-04-07T09:21:38.751Z,4.30
2019-04-07T09:22:32.798Z,4.30
2019-04-07T09:23:32.816Z,3.90
2019-04-07T09:24:33.421Z,3.90
2019-04-07T09:25:33.121Z,3.70
2019-04-07T09:26:33.326Z,3.90
2019-04-07T09:27:32.815Z,4.10
2019-04-07T09:28:33.171Z,4.20
2019-04-07T09:29:32.801Z,3.60
2019-04-07T09:30:32.774Z,3.50
2019-04-07T09:31:33.263Z,3.60
2019-04-07T09:32:33.418Z,3.50
2019-04-07T09:33:35.722Z,3.50
2019-04-07T09:34:33.408Z,3.30
2019-04-07T09:35:33.317Z,3.40
2019-04-07T09:36:33.512Z,3.60
2019-04-07T09:37:33.412Z,3.50
2019-04-07T09:38:33.392Z,3.50
2019-04-07T09:39:50.710Z,2.90
2019-04-07T09:40:32.749Z,3.30
2019-04-07T09:41:32.760Z,3.70
2019-04-07T09:42:33.372Z,3.60
2019-04-07T09:43:33.472Z,3.20
2019-04-07T09:44:36.562Z,3.10
2019-04-07T09:45:33.398Z,3.40
2019-04-07T09:46:32.775Z,3.20
2019-04-07T09:47:32.922Z,3.50
2019-04-07T09:48:33.410Z,3.60
2019-04-07T09:49:32.774Z,3.70
2019-04-07T09:50:32.783Z,3.90
2019-04-07T09:51:33.155Z,3.60
2019-04-07T09:52:32.756Z,4.00
2019-04-07T09:53:32.782Z,3.70
2019-04-07T09:54:32.814Z,3.50
2019-04-07T09:55:33.243Z,3.30
2019-04-07T09:56:33.635Z,3.80
2019-04-07T09:57:35.474Z,3.40
2019-04-07T09:58:33.189Z,3.20
2019-04-07T09:59:32.845Z,3.80
2019-04-07T10:00:33.786Z,3.50
2019-04-07T10:01:33.048Z,3.30
2019-04-07T10:02:35.474Z,3.10
2019-04-07T10:03:32.790Z,3.20
2019-04-07T10:04:32.770Z,3.10
2019-04-07T10:05:32.829Z,3.20
2019-04-07T10:06:32.839Z,3.50
2019-04-07T10:07:33.432Z,3.20
2019-04-07T10:08:32.816Z,3.40
2019-04-07T10:09:33.489Z,3.60
2019-04-07T10:10:32.783Z,3.50
2019-04-07T10:11:32.826Z,2.90
2019-04-07T10:12:33.481Z,3.00
2019-04-07T10:13:32.788Z,3.00
2019-04-07T10:14:32.809Z,3.60
2019-04-07T10:15:32.873Z,3.60
2019-04-07T10:16:33.893Z,3.50
2019-04-07T10:17:32.936Z,3.70
2019-04-07T10:18:33.809Z,3.60
2019-04-07T10:19:32.834Z,3.70
2019-04-07T10:20:33.602Z,3.30
2019-04-07T10:21:32.867Z,3.40
2019-04-07T10:22:32.821Z,3.70
2019-04-07T10:23:32.834Z,3.80
2019-04-07T10:24:33.138Z,3.90
2019-04-07T10:25:33.264Z,3.80
2019-04-07T10:26:33.629Z,3.60
2019-04-07T10:27:32.938Z,3.50
2019-04-07T10:28:33.418Z,3.70
2019-04-07T10:29:33.086Z,3.30
2019-04-07T10:30:32.832Z,3.30
2019-04-07T10:31:32.815Z,3.10
2019-04-07T10:32:32.830Z,3.10
2019-04-07T10:33:33.444Z,3.40
2019-04-07T10:34:33.129Z,3.40
2019-04-07T10:35:33.484Z,3.70
2019-04-07T10:36:32.959Z,3.50
2019-04-07T10:37:33.518Z,3.30
2019-04-07T10:38:32.839Z,3.10
2019-04-07T10:39:33.633Z,2.80
2019-04-07T10:40:33.455Z,3.00
2019-04-07T10:41:32.829Z,3.20
2019-04-07T10:42:33.490Z,2.80
2019-04-07T10:43:32.821Z,3.10
2019-04-07T10:44:34.081Z,2.70
2019-04-07T10:45:32.992Z,3.20
2019-04-07T10:46:33.593Z,2.90
2019-04-07T10:47:33.521Z,3.10
2019-04-07T10:48:33.268Z,2.80
2019-04-07T10:49:33.012Z,2.70
2019-04-07T10:50:33.591Z,2.80
2019-04-07T10:51:32.939Z,2.70
2019-04-07T10:52:32.900Z,2.90
2019-04-07T10:53:34.067Z,3.00
2019-04-07T10:54:33.666Z,2.40
2019-04-07T10:55:33.022Z,2.60
2019-04-07T10:56:32.930Z,2.60
2019-04-07T10:57:33.423Z,2.90
2019-04-07T10:58:33.258Z,2.50
2019-04-07T10:59:32.985Z,2.40
2019-04-07T11:00:33.450Z,2.60
2019-04-07T11:01:33.360Z,2.60
2019-04-07T11:02:33.039Z,2.80
2019-04-07T11:03:33.045Z,2.60
2019-04-07T11:04:33.033Z,2.60
2019-04-07T11:05:33.135Z,2.60
2019-04-07T11:06:33.865Z,2.30
2019-04-07T11:07:33.797Z,2.40
2019-04-07T11:08:33.809Z,2.40
2019-04-07T11:09:33.113Z,2.20
2019-04-07T11:10:37.320Z,2.30
2019-04-07T11:11:33.136Z,2.30
2019-04-07T11:12:33.144Z,2.50
2019-04-07T11:13:33.084Z,2.60
2019-04-07T11:14:33.158Z,2.30
2019-04-07T11:15:33.107Z,2.40
2019-04-07T11:16:33.740Z,2.50
2019-04-07T11:17:33.811Z,2.20
2019-04-07T11:18:33.717Z,2.40
2019-04-07T11:19:33.384Z,2.50
2019-04-07T11:20:33.838Z,2.00
2019-04-07T11:21:33.823Z,2.40
2019-04-07T11:22:36.037Z,2.40
2019-04-07T11:23:33.126Z,2.20
2019-04-07T11:24:33.818Z,2.40
2019-04-07T11:25:33.650Z,2.10
2019-04-07T11:26:33.135Z,2.40
2019-04-07T11:27:33.153Z,2.30
2019-04-07T11:28:33.793Z,2.60
2019-04-07T11:29:33.714Z,2.30
2019-04-07T11:30:33.320Z,2.80
2019-04-07T11:31:33.117Z,2.40
2019-04-07T11:32:33.144Z,2.30
2019-04-07T11:33:33.933Z,2.80
2019-04-07T11:34:33.187Z,2.70
2019-04-07T11:35:33.155Z,2.50
2019-04-07T11:36:33.213Z,2.30
2019-04-07T11:37:33.129Z,2.20
2019-04-07T11:38:33.111Z,2.40
2019-04-07T11:39:33.155Z,2.50
2019-04-07T11:40:42.612Z,2.30
2019-04-07T11:41:33.149Z,2.30
2019-04-07T11:42:33.412Z,2.40
2019-04-07T11:43:33.132Z,2.20
2019-04-07T11:44:33.905Z,2.30
2019-04-07T11:45:33.445Z,2.30
2019-04-07T11:46:33.821Z,2.30
2019-04-07T11:47:33.964Z,2.40
2019-04-07T11:48:33.278Z,2.50
2019-04-07T11:49:33.151Z,2.70
2019-04-07T11:50:33.137Z,2.30
2019-04-07T11:51:33.213Z,2.50
2019-04-07T11:52:33.341Z,2.90
2019-04-07T11:53:33.168Z,2.20
2019-04-07T11:54:33.865Z,2.20
2019-04-07T11:55:33.421Z,2.60
2019-04-07T11:56:33.952Z,2.40
2019-04-07T11:57:33.482Z,2.30
2019-04-07T11:58:34.641Z,2.20
2019-04-07T11:59:33.191Z,2.50
2019-04-07T12:00:33.383Z,2.50
2019-04-07T12:01:33.859Z,2.30
2019-04-07T12:02:33.164Z,2.40
2019-04-07T12:03:33.183Z,2.20
2019-04-07T12:04:34.455Z,2.10
2019-04-07T12:05:33.394Z,2.10
2019-04-07T12:06:33.257Z,2.20
2019-04-07T12:07:33.410Z,2.00
2019-04-07T12:08:35.916Z,2.60
2019-04-07T12:09:33.702Z,2.10
2019-04-07T12:10:33.242Z,2.30
2019-04-07T12:11:33.171Z,2.50
2019-04-07T12:12:33.197Z,2.20
2019-04-07T12:13:33.165Z,2.20
2019-04-07T12:14:33.865Z,2.30
2019-04-07T12:15:33.516Z,2.20
2019-04-07T12:16:33.796Z,2.20
2019-04-07T12:17:33.969Z,2.20
2019-04-07T12:18:34.085Z,2.40
2019-04-07T12:19:33.323Z,2.10
2019-04-07T12:20:34.106Z,2.10
2019-04-07T12:21:37.184Z,2.00
2019-04-07T12:22:33.794Z,2.20
2019-04-07T12:23:33.728Z,2.20
2019-04-07T12:24:33.672Z,1.90
2019-04-07T12:25:33.869Z,2.10
2019-04-07T12:26:37.331Z,2.00
2019-04-07T12:27:33.406Z,2.00
2019-04-07T12:28:33.452Z,2.10
2019-04-07T12:29:33.216Z,2.20
2019-04-07T12:30:33.792Z,2.30
2019-04-07T12:31:33.657Z,1.90
2019-04-07T12:32:34.239Z,2.10
2019-04-07T12:33:37.207Z,2.40
2019-04-07T12:34:33.344Z,2.60
2019-04-07T12:35:34.026Z,2.40
2019-04-07T12:36:33.309Z,2.20
2019-04-07T12:37:38.117Z,2.20
2019-04-07T12:38:33.855Z,2.30
2019-04-07T12:39:34.884Z,2.30
2019-04-07T12:40:33.210Z,2.30
2019-04-07T12:41:33.226Z,2.50
2019-04-07T12:42:33.341Z,2.40
2019-04-07T12:43:33.971Z,2.20
2019-04-07T12:44:33.276Z,2.30
2019-04-07T12:45:35.624Z,2.50
2019-04-07T12:46:33.267Z,2.70
2019-04-07T12:47:33.241Z,2.40
2019-04-07T12:48:33.267Z,2.30
2019-04-07T12:49:35.144Z,2.10
2019-04-07T12:50:33.804Z,2.10
2019-04-07T12:51:33.912Z,2.40
2019-04-07T12:52:33.475Z,2.20
2019-04-07T12:53:35.929Z,2.10
2019-04-07T12:54:33.237Z,2.10
2019-04-07T12:55:33.217Z,2.50
2019-04-07T12:56:34.173Z,2.70
2019-04-07T12:57:37.705Z,2.60
2019-04-07T12:58:33.220Z,2.60
2019-04-07T12:59:33.648Z,2.50
2019-04-07T13:00:44.416Z,2.30
2019-04-07T13:01:33.867Z,2.70
2019-04-07T13:02:33.787Z,2.60
2019-04-07T13:03:33.314Z,2.60
2019-04-07T13:04:33.226Z,2.60
2019-04-07T13:05:35.639Z,2.60
2019-04-07T13:06:33.369Z,2.60
2019-04-07T13:07:33.553Z,2.50
2019-04-07T13:08:33.707Z,2.50
2019-04-07T13:09:33.696Z,2.50
2019-04-07T13:10:34.360Z,2.90
2019-04-07T13:11:36.239Z,2.80
2019-04-07T13:12:33.289Z,2.90